RUK85K EGAA-LFOB
Flight info
| Callsign | RUK85K |
|---|---|
| Flight time | 1h 23m |
| Altitude | 33000 |
| Route | DEGOS DCT TUGSI DCT DIRUM DCT BANBA DCT DIQSE DCT ICOSA DCT RUHUN DCT YORQI DCT UNZIB DCT NUCHU L18 MID Y803 SFD M605 HARDY M605 PETAX J150 VELOL |
| Aircraft | B738/M-SDE2E3FGHIRWXY/LB1 |
Departure
| Time | 2026-04-27 15:26 |
|---|---|
| Airport | Belfast International Airport (EGAA) |
Arrival
| Time | 2026-04-27 16:49 |
|---|---|
| Airport | Beauvais-Tillé airport (LFOB) |
| Time | Latitude | Longitude | Altitude | Speed | Heading |
|---|---|---|---|---|---|
| 2026-04-27 14:50 | 54.65985 | -6.21950 | 273 ft | 0 kts | 65° |
| 2026-04-27 15:11 | 54.65978 | -6.21978 | 271 ft | 4 kts | 65° |
| 2026-04-27 15:11 | 54.65966 | -6.22020 | 271 ft | 4 kts | 65° |
| 2026-04-27 15:11 | 54.65957 | -6.22063 | 271 ft | 4 kts | 83° |
| 2026-04-27 15:12 | 54.65957 | -6.22109 | 271 ft | 4 kts | 91° |
| 2026-04-27 15:12 | 54.65952 | -6.22152 | 271 ft | 4 kts | 65° |
| 2026-04-27 15:12 | 54.65940 | -6.22195 | 271 ft | 4 kts | 65° |
| 2026-04-27 15:12 | 54.65929 | -6.22237 | 271 ft | 4 kts | 65° |
| 2026-04-27 15:13 | 54.65918 | -6.22279 | 271 ft | 3 kts | 65° |
| 2026-04-27 15:13 | 54.65916 | -6.22285 | 271 ft | 0 kts | 65° |
| 2026-04-27 15:15 | 54.65917 | -6.22282 | 271 ft | 1 kts | 65° |
| 2026-04-27 15:15 | 54.65926 | -6.22250 | 271 ft | 4 kts | 64° |
| 2026-04-27 15:15 | 54.65937 | -6.22209 | 271 ft | 4 kts | 64° |
| 2026-04-27 15:16 | 54.65948 | -6.22170 | 271 ft | 4 kts | 64° |
| 2026-04-27 15:16 | 54.65956 | -6.22144 | 271 ft | 4 kts | 63° |
| 2026-04-27 15:16 | 54.65965 | -6.22106 | 271 ft | 3 kts | 83° |
| 2026-04-27 15:16 | 54.65949 | -6.22080 | 271 ft | 4 kts | 160° |
| 2026-04-27 15:17 | 54.65935 | -6.22070 | 271 ft | 0 kts | 156° |
| 2026-04-27 15:19 | 54.65919 | -6.22059 | 271 ft | 7 kts | 156° |
| 2026-04-27 15:19 | 54.65874 | -6.22024 | 274 ft | 7 kts | 156° |
| 2026-04-27 15:19 | 54.65835 | -6.21975 | 273 ft | 7 kts | 110° |
| 2026-04-27 15:19 | 54.65853 | -6.21873 | 276 ft | 11 kts | 65° |
| 2026-04-27 15:20 | 54.65888 | -6.21747 | 274 ft | 12 kts | 64° |
| 2026-04-27 15:20 | 54.65924 | -6.21621 | 271 ft | 11 kts | 65° |
| 2026-04-27 15:20 | 54.65955 | -6.21497 | 271 ft | 11 kts | 66° |
| 2026-04-27 15:20 | 54.65988 | -6.21375 | 272 ft | 12 kts | 65° |
| 2026-04-27 15:21 | 54.66030 | -6.21217 | 273 ft | 17 kts | 65° |
| 2026-04-27 15:21 | 54.66084 | -6.21016 | 271 ft | 20 kts | 65° |
| 2026-04-27 15:21 | 54.66144 | -6.20797 | 275 ft | 20 kts | 65° |
| 2026-04-27 15:21 | 54.66202 | -6.20584 | 271 ft | 19 kts | 64° |
| 2026-04-27 15:22 | 54.66256 | -6.20377 | 271 ft | 19 kts | 65° |
| 2026-04-27 15:22 | 54.66309 | -6.20178 | 271 ft | 18 kts | 64° |
| 2026-04-27 15:22 | 54.66363 | -6.19987 | 271 ft | 17 kts | 63° |
| 2026-04-27 15:22 | 54.66397 | -6.19820 | 271 ft | 11 kts | 89° |
| 2026-04-27 15:23 | 54.66372 | -6.19722 | 271 ft | 4 kts | 141° |
| 2026-04-27 15:23 | 54.66363 | -6.19714 | 271 ft | 0 kts | 150° |
| 2026-04-27 15:23 | 54.66361 | -6.19712 | 271 ft | 2 kts | 150° |
| 2026-04-27 15:24 | 54.66321 | -6.19675 | 274 ft | 9 kts | 154° |
| 2026-04-27 15:24 | 54.66269 | -6.19665 | 271 ft | 6 kts | 215° |
| 2026-04-27 15:24 | 54.66259 | -6.19692 | 271 ft | 0 kts | 245° |
| 2026-04-27 15:25 | 54.66193 | -6.19943 | 274 ft | 57 kts | 245° |
| 2026-04-27 15:25 | 54.65927 | -6.20919 | 271 ft | 121 kts | 245° |
| 2026-04-27 15:26 | 54.65496 | -6.22510 | 315 ft | 167 kts | 248° |
| 2026-04-27 15:26 | 54.64990 | -6.24342 | 917 ft | 171 kts | 249° |
| 2026-04-27 15:26 | 54.64418 | -6.26223 | 1536 ft | 182 kts | 247° |
| 2026-04-27 15:26 | 54.63844 | -6.28189 | 2153 ft | 192 kts | 247° |
| 2026-04-27 15:27 | 54.63209 | -6.30413 | 2389 ft | 217 kts | 248° |
| 2026-04-27 15:27 | 54.62436 | -6.32807 | 2590 ft | 239 kts | 231° |
| 2026-04-27 15:27 | 54.61011 | -6.34419 | 2841 ft | 263 kts | 203° |
| 2026-04-27 15:27 | 54.59275 | -6.35636 | 3369 ft | 272 kts | 205° |
| 2026-04-27 15:28 | 54.57582 | -6.37075 | 4228 ft | 272 kts | 210° |
| 2026-04-27 15:28 | 54.55951 | -6.38710 | 5085 ft | 273 kts | 214° |
| 2026-04-27 15:28 | 54.54340 | -6.40531 | 5787 ft | 278 kts | 216° |
| 2026-04-27 15:28 | 54.52759 | -6.42475 | 6553 ft | 281 kts | 218° |
| 2026-04-27 15:29 | 54.51176 | -6.44536 | 7230 ft | 286 kts | 220° |
| 2026-04-27 15:29 | 54.49603 | -6.46666 | 7950 ft | 289 kts | 221° |
| 2026-04-27 15:29 | 54.48031 | -6.48847 | 8647 ft | 293 kts | 223° |
| 2026-04-27 15:29 | 54.46449 | -6.51078 | 9361 ft | 296 kts | 224° |
| 2026-04-27 15:30 | 54.44845 | -6.53364 | 10060 ft | 300 kts | 224° |
| 2026-04-27 15:30 | 54.43231 | -6.55678 | 10683 ft | 306 kts | 225° |
| 2026-04-27 15:30 | 54.41544 | -6.58115 | 10856 ft | 328 kts | 225° |
| 2026-04-27 15:30 | 54.39749 | -6.60711 | 11123 ft | 345 kts | 224° |
| 2026-04-27 15:31 | 54.37887 | -6.63396 | 11647 ft | 353 kts | 224° |
| 2026-04-27 15:31 | 54.35998 | -6.66110 | 12324 ft | 356 kts | 224° |
| 2026-04-27 15:31 | 54.34089 | -6.68853 | 13011 ft | 360 kts | 225° |
| 2026-04-27 15:31 | 54.32158 | -6.71626 | 13692 ft | 365 kts | 225° |
| 2026-04-27 15:32 | 54.30202 | -6.74434 | 14332 ft | 370 kts | 225° |
| 2026-04-27 15:32 | 54.28221 | -6.77276 | 14990 ft | 373 kts | 225° |
| 2026-04-27 15:32 | 54.26227 | -6.80131 | 15670 ft | 376 kts | 225° |
| 2026-04-27 15:32 | 54.24245 | -6.82969 | 16347 ft | 378 kts | 225° |
| 2026-04-27 15:33 | 54.22215 | -6.85872 | 17005 ft | 382 kts | 225° |
| 2026-04-27 15:33 | 54.20154 | -6.88813 | 17672 ft | 386 kts | 225° |
| 2026-04-27 15:33 | 54.18085 | -6.91772 | 18270 ft | 389 kts | 225° |
| 2026-04-27 15:33 | 54.16024 | -6.94788 | 18893 ft | 392 kts | 226° |
| 2026-04-27 15:34 | 54.13943 | -6.97862 | 19453 ft | 396 kts | 226° |
| 2026-04-27 15:34 | 54.11853 | -7.00951 | 20006 ft | 399 kts | 226° |
| 2026-04-27 15:34 | 54.09740 | -7.04063 | 20554 ft | 403 kts | 226° |
| 2026-04-27 15:34 | 54.07614 | -7.07183 | 21097 ft | 406 kts | 226° |
| 2026-04-27 15:35 | 54.05459 | -7.10336 | 21623 ft | 410 kts | 226° |
| 2026-04-27 15:35 | 54.03280 | -7.13490 | 22140 ft | 415 kts | 223° |
| 2026-04-27 15:35 | 54.00718 | -7.15877 | 22632 ft | 430 kts | 200° |
| 2026-04-27 15:35 | 53.97747 | -7.16628 | 23168 ft | 439 kts | 180° |
| 2026-04-27 15:36 | 53.94725 | -7.15757 | 23677 ft | 444 kts | 163° |
| 2026-04-27 15:36 | 53.91769 | -7.14179 | 24139 ft | 447 kts | 162° |
| 2026-04-27 15:36 | 53.88837 | -7.12542 | 24519 ft | 451 kts | 161° |
| 2026-04-27 15:36 | 53.85842 | -7.10859 | 24925 ft | 454 kts | 161° |
| 2026-04-27 15:37 | 53.82831 | -7.09188 | 25348 ft | 457 kts | 161° |
| 2026-04-27 15:37 | 53.79791 | -7.07529 | 25766 ft | 459 kts | 162° |
| 2026-04-27 15:37 | 53.76732 | -7.05882 | 26173 ft | 462 kts | 162° |
| 2026-04-27 15:37 | 53.73675 | -7.04254 | 26585 ft | 464 kts | 162° |
| 2026-04-27 15:38 | 53.70584 | -7.02618 | 26963 ft | 467 kts | 161° |
| 2026-04-27 15:38 | 53.67470 | -7.00975 | 27333 ft | 470 kts | 161° |
| 2026-04-27 15:38 | 53.64336 | -6.99325 | 27694 ft | 473 kts | 161° |
| 2026-04-27 15:38 | 53.61173 | -6.97661 | 28081 ft | 475 kts | 161° |
| 2026-04-27 15:39 | 53.58015 | -6.96001 | 28447 ft | 478 kts | 161° |
| 2026-04-27 15:39 | 53.54829 | -6.94330 | 28791 ft | 480 kts | 161° |
| 2026-04-27 15:39 | 53.51627 | -6.92651 | 29175 ft | 482 kts | 161° |
| 2026-04-27 15:39 | 53.48427 | -6.90976 | 29562 ft | 483 kts | 161° |
| 2026-04-27 15:40 | 53.45215 | -6.89298 | 29956 ft | 484 kts | 161° |
| 2026-04-27 15:40 | 53.41999 | -6.87620 | 30434 ft | 483 kts | 161° |
| 2026-04-27 15:40 | 53.38792 | -6.85951 | 30863 ft | 481 kts | 161° |
| 2026-04-27 15:40 | 53.35613 | -6.84298 | 31250 ft | 480 kts | 160° |
| 2026-04-27 15:41 | 53.32420 | -6.82640 | 31605 ft | 480 kts | 160° |
| 2026-04-27 15:41 | 53.29220 | -6.80981 | 31974 ft | 480 kts | 160° |
| 2026-04-27 15:41 | 53.26038 | -6.79333 | 32351 ft | 479 kts | 160° |
| 2026-04-27 15:41 | 53.22860 | -6.77691 | 32732 ft | 477 kts | 160° |
| 2026-04-27 15:42 | 53.19732 | -6.76077 | 33127 ft | 476 kts | 160° |
| 2026-04-27 15:42 | 53.16567 | -6.74446 | 33408 ft | 477 kts | 160° |
| 2026-04-27 15:42 | 53.10168 | -6.71153 | 33382 ft | 481 kts | 160° |
| 2026-04-27 15:43 | 53.03819 | -6.67902 | 33376 ft | 474 kts | 160° |
| 2026-04-27 15:43 | 52.97490 | -6.64804 | 33387 ft | 476 kts | 162° |
| 2026-04-27 15:44 | 52.91049 | -6.62167 | 33381 ft | 477 kts | 164° |
| 2026-04-27 15:44 | 52.84575 | -6.59611 | 33380 ft | 478 kts | 164° |
| 2026-04-27 15:45 | 52.78097 | -6.57009 | 33377 ft | 479 kts | 163° |
| 2026-04-27 15:45 | 52.71636 | -6.54384 | 33377 ft | 478 kts | 163° |
| 2026-04-27 15:46 | 52.65186 | -6.51762 | 33385 ft | 477 kts | 163° |
| 2026-04-27 15:46 | 52.58735 | -6.49151 | 33380 ft | 477 kts | 163° |
| 2026-04-27 15:47 | 52.52294 | -6.46553 | 33377 ft | 477 kts | 163° |
| 2026-04-27 15:47 | 52.45859 | -6.43965 | 33373 ft | 476 kts | 163° |
| 2026-04-27 15:48 | 52.39461 | -6.41400 | 33370 ft | 476 kts | 163° |
| 2026-04-27 15:49 | 52.29816 | -6.37549 | 33375 ft | 475 kts | 163° |
| 2026-04-27 15:49 | 52.23392 | -6.34992 | 33372 ft | 474 kts | 163° |
| 2026-04-27 15:50 | 52.16989 | -6.32451 | 33366 ft | 474 kts | 163° |
| 2026-04-27 15:50 | 52.10587 | -6.29918 | 33367 ft | 474 kts | 163° |
| 2026-04-27 15:51 | 52.04181 | -6.27391 | 33359 ft | 473 kts | 163° |
| 2026-04-27 15:51 | 51.98129 | -6.23690 | 33367 ft | 456 kts | 136° |
| 2026-04-27 15:51 | 51.95899 | -6.20170 | 33357 ft | 443 kts | 121° |
| 2026-04-27 15:52 | 51.94252 | -6.16040 | 33365 ft | 431 kts | 108° |
| 2026-04-27 15:52 | 51.93277 | -6.11563 | 33371 ft | 419 kts | 97° |
| 2026-04-27 15:52 | 51.92580 | -6.07020 | 33356 ft | 419 kts | 96° |
| 2026-04-27 15:53 | 51.91233 | -5.97811 | 33352 ft | 421 kts | 96° |
| 2026-04-27 15:53 | 51.89842 | -5.88571 | 33347 ft | 424 kts | 97° |
| 2026-04-27 15:54 | 51.88402 | -5.79291 | 33350 ft | 426 kts | 97° |
| 2026-04-27 15:54 | 51.86939 | -5.69980 | 33351 ft | 428 kts | 97° |
| 2026-04-27 15:55 | 51.85460 | -5.60626 | 33346 ft | 429 kts | 97° |
| 2026-04-27 15:55 | 51.83984 | -5.51333 | 33344 ft | 430 kts | 97° |
| 2026-04-27 15:56 | 51.82486 | -5.41959 | 33336 ft | 430 kts | 97° |
| 2026-04-27 15:56 | 51.80983 | -5.32595 | 33335 ft | 430 kts | 97° |
| 2026-04-27 15:57 | 51.79546 | -5.23236 | 33330 ft | 426 kts | 94° |
| 2026-04-27 15:57 | 51.78445 | -5.13861 | 33325 ft | 424 kts | 92° |
| 2026-04-27 15:58 | 51.77405 | -5.04516 | 33328 ft | 423 kts | 93° |
| 2026-04-27 15:58 | 51.76331 | -4.95177 | 33325 ft | 422 kts | 93° |
| 2026-04-27 15:59 | 51.75232 | -4.85864 | 33348 ft | 422 kts | 93° |
| 2026-04-27 15:59 | 51.74120 | -4.76560 | 33332 ft | 423 kts | 93° |
| 2026-04-27 16:00 | 51.73004 | -4.67296 | 33329 ft | 423 kts | 93° |
| 2026-04-27 16:00 | 51.71876 | -4.57991 | 33321 ft | 423 kts | 94° |
| 2026-04-27 16:01 | 51.70736 | -4.48652 | 33312 ft | 424 kts | 94° |
| 2026-04-27 16:01 | 51.69593 | -4.39350 | 33300 ft | 424 kts | 94° |
| 2026-04-27 16:02 | 51.68437 | -4.30011 | 33307 ft | 424 kts | 93° |
| 2026-04-27 16:02 | 51.67275 | -4.20688 | 33295 ft | 425 kts | 93° |
| 2026-04-27 16:03 | 51.66105 | -4.11363 | 33293 ft | 425 kts | 93° |
| 2026-04-27 16:03 | 51.64925 | -4.02016 | 33288 ft | 425 kts | 94° |
| 2026-04-27 16:04 | 51.63941 | -3.94263 | 33280 ft | 426 kts | 94° |
| 2026-04-27 16:04 | 51.62744 | -3.84914 | 33288 ft | 427 kts | 94° |
| 2026-04-27 16:05 | 51.61522 | -3.75577 | 33257 ft | 428 kts | 94° |
| 2026-04-27 16:05 | 51.60286 | -3.66196 | 33270 ft | 429 kts | 94° |
| 2026-04-27 16:06 | 51.59147 | -3.56796 | 33271 ft | 424 kts | 89° |
| 2026-04-27 16:06 | 51.58592 | -3.47452 | 33268 ft | 423 kts | 86° |
| 2026-04-27 16:07 | 51.58121 | -3.38032 | 33273 ft | 424 kts | 87° |
| 2026-04-27 16:07 | 51.57600 | -3.28548 | 33265 ft | 426 kts | 87° |
| 2026-04-27 16:08 | 51.57042 | -3.19052 | 33279 ft | 428 kts | 88° |
| 2026-04-27 16:08 | 51.56462 | -3.09483 | 33274 ft | 430 kts | 88° |
| 2026-04-27 16:09 | 51.55872 | -2.99897 | 33276 ft | 431 kts | 88° |
| 2026-04-27 16:09 | 51.54973 | -2.85491 | 33295 ft | 432 kts | 88° |
| 2026-04-27 16:10 | 51.53748 | -2.66313 | 33271 ft | 433 kts | 89° |
| 2026-04-27 16:11 | 51.52810 | -2.51912 | 33256 ft | 432 kts | 89° |
| 2026-04-27 16:12 | 51.51854 | -2.37536 | 33277 ft | 431 kts | 90° |
| 2026-04-27 16:13 | 51.50880 | -2.23168 | 33269 ft | 432 kts | 90° |
| 2026-04-27 16:13 | 51.49888 | -2.08741 | 33255 ft | 434 kts | 90° |
| 2026-04-27 16:14 | 51.48517 | -1.89472 | 33269 ft | 437 kts | 91° |
| 2026-04-27 16:15 | 51.47035 | -1.69994 | 33247 ft | 444 kts | 96° |
| 2026-04-27 16:16 | 51.44959 | -1.60554 | 33254 ft | 455 kts | 111° |
| 2026-04-27 16:16 | 51.42198 | -1.51468 | 33228 ft | 457 kts | 111° |
| 2026-04-27 16:17 | 51.36725 | -1.33084 | 33240 ft | 457 kts | 111° |
| 2026-04-27 16:18 | 51.30629 | -1.15302 | 33226 ft | 452 kts | 124° |
| 2026-04-27 16:19 | 51.26797 | -1.07434 | 33245 ft | 449 kts | 125° |
| 2026-04-27 16:20 | 51.19212 | -0.91458 | 33248 ft | 454 kts | 126° |
| 2026-04-27 16:21 | 51.13498 | -0.79436 | 33238 ft | 456 kts | 126° |
| 2026-04-27 16:21 | 51.07775 | -0.67457 | 33207 ft | 442 kts | 126° |
| 2026-04-27 16:22 | 51.05954 | -0.63663 | 33036 ft | 432 kts | 126° |
| 2026-04-27 16:22 | 51.02652 | -0.55788 | 32288 ft | 424 kts | 118° |
| 2026-04-27 16:22 | 51.01131 | -0.51789 | 31925 ft | 422 kts | 117° |
| 2026-04-27 16:23 | 50.99625 | -0.47802 | 31567 ft | 419 kts | 117° |
| 2026-04-27 16:23 | 50.96610 | -0.39920 | 30863 ft | 416 kts | 117° |
| 2026-04-27 16:23 | 50.95100 | -0.36026 | 30518 ft | 414 kts | 116° |
| 2026-04-27 16:24 | 50.93587 | -0.32144 | 30147 ft | 413 kts | 116° |
| 2026-04-27 16:24 | 50.90576 | -0.24454 | 29362 ft | 408 kts | 117° |
| 2026-04-27 16:25 | 50.87597 | -0.16873 | 28613 ft | 403 kts | 117° |
| 2026-04-27 16:25 | 50.84668 | -0.09440 | 27950 ft | 396 kts | 117° |
| 2026-04-27 16:26 | 50.81770 | -0.02103 | 27253 ft | 390 kts | 118° |
| 2026-04-27 16:26 | 50.78906 | 0.05136 | 26573 ft | 386 kts | 120° |
| 2026-04-27 16:27 | 50.75921 | 0.12147 | 25875 ft | 384 kts | 130° |
| 2026-04-27 16:27 | 50.69913 | 0.20196 | 24926 ft | 377 kts | 142° |
| 2026-04-27 16:28 | 50.65823 | 0.25323 | 24269 ft | 373 kts | 142° |
| 2026-04-27 16:28 | 50.61795 | 0.30434 | 23563 ft | 370 kts | 141° |
| 2026-04-27 16:29 | 50.55849 | 0.37985 | 22578 ft | 360 kts | 141° |
| 2026-04-27 16:30 | 50.51990 | 0.42895 | 22046 ft | 354 kts | 141° |
| 2026-04-27 16:30 | 50.48204 | 0.47700 | 21492 ft | 347 kts | 142° |
| 2026-04-27 16:31 | 50.42591 | 0.54790 | 20515 ft | 344 kts | 143° |
| 2026-04-27 16:31 | 50.38899 | 0.59445 | 19875 ft | 341 kts | 143° |
| 2026-04-27 16:32 | 50.35209 | 0.64085 | 19250 ft | 339 kts | 143° |
| 2026-04-27 16:32 | 50.33374 | 0.66393 | 18942 ft | 338 kts | 143° |
| 2026-04-27 16:33 | 50.29723 | 0.70984 | 18297 ft | 336 kts | 143° |
| 2026-04-27 16:33 | 50.27908 | 0.73264 | 17955 ft | 335 kts | 143° |
| 2026-04-27 16:33 | 50.26094 | 0.75541 | 17634 ft | 333 kts | 143° |
| 2026-04-27 16:33 | 50.24290 | 0.77805 | 17299 ft | 331 kts | 143° |
| 2026-04-27 16:34 | 50.22493 | 0.80056 | 16979 ft | 330 kts | 143° |
| 2026-04-27 16:34 | 50.20706 | 0.82291 | 16667 ft | 328 kts | 143° |
| 2026-04-27 16:34 | 50.18930 | 0.84517 | 16346 ft | 327 kts | 142° |
| 2026-04-27 16:34 | 50.17301 | 0.86972 | 16104 ft | 325 kts | 134° |
| 2026-04-27 16:35 | 50.15815 | 0.89609 | 15807 ft | 323 kts | 132° |
| 2026-04-27 16:35 | 50.14366 | 0.92280 | 15512 ft | 322 kts | 132° |
| 2026-04-27 16:35 | 50.11473 | 0.97575 | 14907 ft | 320 kts | 133° |
| 2026-04-27 16:36 | 50.10021 | 1.00194 | 14609 ft | 319 kts | 133° |
| 2026-04-27 16:36 | 50.08569 | 1.02791 | 14308 ft | 318 kts | 133° |
| 2026-04-27 16:36 | 50.07118 | 1.05374 | 14003 ft | 317 kts | 133° |
| 2026-04-27 16:36 | 50.05663 | 1.07955 | 13667 ft | 316 kts | 133° |
| 2026-04-27 16:37 | 50.04215 | 1.10519 | 13329 ft | 315 kts | 133° |
| 2026-04-27 16:37 | 50.02772 | 1.13070 | 13017 ft | 313 kts | 133° |
| 2026-04-27 16:37 | 50.01336 | 1.15607 | 12712 ft | 312 kts | 133° |
| 2026-04-27 16:37 | 49.99911 | 1.18120 | 12414 ft | 310 kts | 133° |
| 2026-04-27 16:38 | 49.98493 | 1.20621 | 12107 ft | 308 kts | 133° |
| 2026-04-27 16:38 | 49.97046 | 1.23079 | 11872 ft | 305 kts | 136° |
| 2026-04-27 16:38 | 49.95552 | 1.25332 | 11644 ft | 302 kts | 138° |
| 2026-04-27 16:38 | 49.94022 | 1.27560 | 11299 ft | 302 kts | 139° |
| 2026-04-27 16:39 | 49.92485 | 1.29788 | 11057 ft | 300 kts | 138° |
| 2026-04-27 16:39 | 49.90974 | 1.31989 | 10821 ft | 298 kts | 138° |
| 2026-04-27 16:39 | 49.89461 | 1.34201 | 10474 ft | 300 kts | 137° |
| 2026-04-27 16:39 | 49.87955 | 1.36413 | 10285 ft | 296 kts | 137° |
| 2026-04-27 16:40 | 49.86476 | 1.38590 | 10162 ft | 289 kts | 137° |
| 2026-04-27 16:40 | 49.85016 | 1.40741 | 9849 ft | 290 kts | 137° |
| 2026-04-27 16:40 | 49.83565 | 1.42879 | 9661 ft | 286 kts | 137° |
| 2026-04-27 16:40 | 49.82120 | 1.45007 | 9343 ft | 287 kts | 137° |
| 2026-04-27 16:41 | 49.80683 | 1.47124 | 9177 ft | 282 kts | 137° |
| 2026-04-27 16:41 | 49.79261 | 1.49218 | 8887 ft | 282 kts | 136° |
| 2026-04-27 16:41 | 49.77840 | 1.51305 | 8614 ft | 282 kts | 136° |
| 2026-04-27 16:41 | 49.76420 | 1.53392 | 8361 ft | 281 kts | 136° |
| 2026-04-27 16:42 | 49.75000 | 1.55475 | 8055 ft | 282 kts | 136° |
| 2026-04-27 16:42 | 49.73585 | 1.57556 | 7793 ft | 280 kts | 136° |
| 2026-04-27 16:42 | 49.72167 | 1.59637 | 7483 ft | 281 kts | 136° |
| 2026-04-27 16:42 | 49.70741 | 1.61727 | 7151 ft | 285 kts | 135° |
| 2026-04-27 16:43 | 49.69312 | 1.63818 | 6979 ft | 280 kts | 135° |
| 2026-04-27 16:43 | 49.67908 | 1.65870 | 6845 ft | 275 kts | 136° |
| 2026-04-27 16:43 | 49.66530 | 1.67888 | 6649 ft | 272 kts | 136° |
| 2026-04-27 16:43 | 49.65162 | 1.69889 | 6377 ft | 272 kts | 135° |
| 2026-04-27 16:44 | 49.63826 | 1.71836 | 6281 ft | 266 kts | 136° |
| 2026-04-27 16:44 | 49.62469 | 1.73812 | 5951 ft | 269 kts | 136° |
| 2026-04-27 16:44 | 49.61115 | 1.75809 | 5596 ft | 271 kts | 134° |
| 2026-04-27 16:44 | 49.59878 | 1.78009 | 5264 ft | 273 kts | 124° |
| 2026-04-27 16:45 | 49.58823 | 1.80465 | 4889 ft | 276 kts | 121° |
| 2026-04-27 16:45 | 49.57772 | 1.82940 | 4548 ft | 275 kts | 121° |
| 2026-04-27 16:45 | 49.56709 | 1.85377 | 4139 ft | 271 kts | 121° |
| 2026-04-27 16:45 | 49.55676 | 1.87735 | 3817 ft | 261 kts | 122° |
| 2026-04-27 16:46 | 49.54693 | 1.89987 | 3464 ft | 245 kts | 121° |
| 2026-04-27 16:46 | 49.53778 | 1.92092 | 3139 ft | 230 kts | 121° |
| 2026-04-27 16:46 | 49.52917 | 1.94076 | 2857 ft | 215 kts | 121° |
| 2026-04-27 16:46 | 49.52104 | 1.95937 | 2567 ft | 204 kts | 120° |
| 2026-04-27 16:47 | 49.51331 | 1.97710 | 2335 ft | 194 kts | 120° |
| 2026-04-27 16:47 | 49.50593 | 1.99407 | 2058 ft | 186 kts | 119° |
| 2026-04-27 16:47 | 49.49894 | 2.01017 | 1844 ft | 174 kts | 120° |
| 2026-04-27 16:47 | 49.49248 | 2.02502 | 1585 ft | 162 kts | 120° |
| 2026-04-27 16:48 | 49.48634 | 2.03923 | 1403 ft | 160 kts | 118° |
| 2026-04-27 16:48 | 49.48000 | 2.05350 | 1167 ft | 163 kts | 119° |
| 2026-04-27 16:48 | 49.47384 | 2.06802 | 939 ft | 162 kts | 120° |
| 2026-04-27 16:49 | 49.46141 | 2.09673 | 528 ft | 161 kts | 121° |
| 2026-04-27 16:49 | 49.45522 | 2.11088 | 359 ft | 154 kts | 121° |
| 2026-04-27 16:49 | 49.45010 | 2.12271 | 357 ft | 113 kts | 124° |
| 2026-04-27 16:49 | 49.44696 | 2.12994 | 360 ft | 31 kts | 121° |
| 2026-04-27 16:50 | 49.44653 | 2.13141 | 366 ft | 10 kts | 197° |
| 2026-04-27 16:50 | 49.44672 | 2.13051 | 364 ft | 14 kts | 303° |
| 2026-04-27 16:50 | 49.44752 | 2.12870 | 360 ft | 26 kts | 304° |
| 2026-04-27 16:50 | 49.44850 | 2.12646 | 355 ft | 25 kts | 303° |
| 2026-04-27 16:51 | 49.44910 | 2.12504 | 355 ft | 23 kts | 302° |
| 2026-04-27 16:51 | 49.45005 | 2.12278 | 356 ft | 28 kts | 303° |
| 2026-04-27 16:51 | 49.45122 | 2.12015 | 363 ft | 32 kts | 304° |
| 2026-04-27 16:51 | 49.45256 | 2.11712 | 356 ft | 37 kts | 303° |
| 2026-04-27 16:52 | 49.45405 | 2.11364 | 362 ft | 39 kts | 303° |
| 2026-04-27 16:52 | 49.45549 | 2.11035 | 364 ft | 24 kts | 303° |
| 2026-04-27 16:52 | 49.45656 | 2.10878 | 358 ft | 21 kts | 6° |
| 2026-04-27 16:52 | 49.45776 | 2.10967 | 357 ft | 9 kts | 34° |
| 2026-04-27 16:53 | 49.45788 | 2.11028 | 352 ft | 5 kts | 116° |
| 2026-04-27 16:53 | 49.45769 | 2.11077 | 357 ft | 5 kts | 121° |
| 2026-04-27 16:53 | 49.45772 | 2.11126 | 358 ft | 5 kts | 40° |
| 2026-04-27 16:53 | 49.45798 | 2.11154 | 350 ft | 1 kts | 33° |
| 2026-04-27 16:54 | 49.45805 | 2.11161 | 350 ft | 0 kts | 33° |